Time;durP1;ratioP1;P1;durP2;ratioP2;P2;SDS_P1;SDS_P2;PMS_P1;PMS_P2;Temp;Humidity;BMP_temperature;BMP_pressure;BME280_temperature;BME280_humidity;BME280_pressure;Samples;Min_cycle;Max_cycle;Signal;HPM_P1;HPM_P2
2023/04/25 00:01:53;;;;;;;;;;;;;;;-140.72;100.00;53066.63;5028352;28;19999;-69
2023/04/25 00:04:18;;;;;;;;;;;;;;;-140.72;100.00;53113.28;5030793;28;19917;-69
2023/04/25 00:06:43;;;;;;;;;;;;;;;-140.72;100.00;53066.63;5033368;28;20268;-69
2023/04/25 00:09:10;;;;;;;;;;;;;;;-140.72;100.00;53058.50;5031422;28;20016;-69
2023/04/25 00:11:36;;;;;;;;;;;;;;;-140.72;100.00;53064.59;5031560;28;19947;-70
2023/04/25 00:14:02;;;;;;;;;;;;;;;-140.72;100.00;53080.81;5027373;28;19921;-69
2023/04/25 00:16:29;;;;;;;;;;;;;;;-140.72;100.00;53125.47;5028787;28;20299;-70
2023/04/25 00:18:54;;;;;;;;;;;;;;;-140.72;100.00;53048.34;5028083;27;19997;-69
2023/04/25 00:21:20;;;;;;;;;;;;;;;-140.72;100.00;53097.06;5026607;28;19928;-69
2023/04/25 00:23:46;;;;;;;;;;;;;;;-140.72;100.00;53113.28;5028346;28;19932;-69
2023/04/25 00:26:11;;;;;;;;;;;;;;;-140.72;100.00;53084.88;5020246;28;19956;-69
2023/04/25 00:28:37;;;;;;;;;;;;;;;-140.72;100.00;53084.88;5041592;28;20005;-69
2023/04/25 00:31:02;;;;;;;;;;;;;;;-140.72;100.00;53097.06;5029774;28;19918;-69
2023/04/25 00:33:29;;;;;;;;;;;;;;;-140.72;100.00;53070.69;5030371;28;19987;-69
2023/04/25 00:35:55;;;;;;;;;;;;;;;-140.72;100.00;53109.22;5024365;28;19936;-69
2023/04/25 00:38:20;;;;;;;;;;;;;;;-140.72;100.00;53111.25;5028023;28;19921;-69
2023/04/25 00:40:45;;;;;;;;;;;;;;;-140.72;100.00;53082.84;5029279;28;19917;-69
2023/04/25 00:43:11;;;;;;;;;;;;;;;-140.72;100.00;53040.22;5031202;27;19932;-69
2023/04/25 00:45:37;;;;;;;;;;;;;;;-140.72;100.00;53125.47;5027967;28;19921;-69
2023/04/25 00:48:07;;;;;;;;;;;;;;;-140.72;100.00;53082.84;5012603;28;20368;-69
2023/04/25 00:50:33;;;;;;;;;;;;;;;-140.72;100.00;53086.91;5028432;28;20015;-69
2023/04/25 00:52:59;;;;;;;;;;;;;;;-140.72;100.00;53093.00;5033327;28;19921;-69
2023/04/25 00:55:24;;;;;;;;;;;;;;;-140.72;100.00;53111.25;5027733;28;20016;-69
2023/04/25 00:57:50;;;;;;;;;;;;;;;-140.72;100.00;53090.97;5033676;28;19921;-69
2023/04/25 01:00:15;;;;;;;;;;;;;;;-140.72;100.00;53068.66;5025599;28;19917;-69
2023/04/25 01:02:41;;;;;;;;;;;;;;;-140.72;100.00;53127.50;5025630;28;20654;-69
2023/04/25 01:05:07;;;;;;;;;;;;;;;-140.72;100.00;53125.47;5025998;28;19921;-69
2023/04/25 01:07:32;;;;;;;;;;;;;;;-140.72;100.00;53068.66;5032184;28;19974;-68
2023/04/25 01:09:58;;;;;;;;;;;;;;;-140.72;100.00;53117.34;5046230;27;20338;-69
2023/04/25 01:12:23;;;;;;;;;;;;;;;-140.72;100.00;53080.81;5024872;28;19921;-69
2023/04/25 01:14:49;;;;;;;;;;;;;;;-140.72;100.00;53068.66;5023256;28;19921;-69
2023/04/25 01:17:14;;;;;;;;;;;;;;;-140.72;100.00;53076.75;5045238;27;19921;-69
2023/04/25 01:19:40;;;;;;;;;;;;;;;-140.72;100.00;53050.38;5038973;28;19928;-69
2023/04/25 01:22:05;;;;;;;;;;;;;;;-140.72;100.00;53084.88;5028512;28;19974;-69
2023/04/25 01:24:33;;;;;;;;;;;;;;;-140.72;100.00;53129.53;5036762;27;19920;-69
2023/04/25 01:27:06;;;;;;;;;;;;;;;-140.72;100.00;53078.78;5030012;28;20299;-69
2023/04/25 01:29:32;;;;;;;;;;;;;;;-140.72;100.00;53080.81;5027936;28;19964;-69
2023/04/25 01:31:58;;;;;;;;;;;;;;;-140.72;100.00;53135.63;5026974;28;19921;-69
2023/04/25 01:34:23;;;;;;;;;;;;;;;-140.72;100.00;53109.22;5026002;28;19928;-69
2023/04/25 01:36:49;;;;;;;;;;;;;;;-140.72;100.00;53111.25;5028474;28;19917;-69
2023/04/25 01:39:15;;;;;;;;;;;;;;;-140.72;100.00;53135.63;5019503;28;19928;-70
2023/04/25 01:41:40;;;;;;;;;;;;;;;-140.72;100.00;53107.19;5024443;28;19929;-69
2023/04/25 01:44:05;;;;;;;;;;;;;;;-140.72;100.00;53090.97;5026958;28;20034;-69
2023/04/25 01:46:31;;;;;;;;;;;;;;;-140.72;100.00;53103.16;5025044;28;19945;-69
2023/04/25 01:49:05;;;;;;;;;;;;;;;-140.72;100.00;53084.88;5018817;28;19925;-69
2023/04/25 01:51:31;;;;;;;;;;;;;;;-140.72;100.00;53103.16;5019840;28;19941;-69
2023/04/25 01:54:00;;;;;;;;;;;;;;;-140.72;100.00;53086.91;5029932;28;20407;-69
2023/04/25 01:56:29;;;;;;;;;;;;;;;-140.72;100.00;53111.25;5031173;28;19940;-69
2023/04/25 01:58:54;;;;;;;;;;;;;;;-140.72;100.00;53141.69;5030327;28;20013;-69
2023/04/25 02:01:20;;;;;;;;;;;;;;;-140.72;100.00;53056.47;5026378;28;19962;-69
2023/04/25 02:03:45;;;;;;;;;;;;;;;-140.72;100.00;53086.91;5025315;28;19929;-69
2023/04/25 02:08:45;;;;;;;;;;;;;;;-140.72;100.00;53111.25;3956309;22;20609;-68
2023/04/25 02:11:10;;;;;;;;;;;;;;;-140.72;100.00;53123.44;5082019;28;19967;-68
2023/04/25 02:13:35;;;;;;;;;;;;;;;-140.72;100.00;53105.19;5090694;28;19920;-69
2023/04/25 02:16:03;;;;;;;;;;;;;;;-140.72;100.00;53042.25;5090789;28;20381;-69
2023/04/25 02:18:28;;;;;;;;;;;;;;;-140.72;100.00;53060.53;5094382;28;19951;-69
2023/04/25 02:20:54;;;;;;;;;;;;;;;-140.72;100.00;53080.81;5096270;28;19948;-69
2023/04/25 02:23:19;;;;;;;;;;;;;;;-140.72;100.00;53078.78;5095892;28;19942;-69
2023/04/25 02:25:44;;;;;;;;;;;;;;;-140.72;100.00;53084.88;5093432;28;19916;-68
2023/04/25 02:28:10;;;;;;;;;;;;;;;-140.72;100.00;53054.44;5095309;28;19920;-69
2023/04/25 02:30:35;;;;;;;;;;;;;;;-140.72;100.00;53086.91;5083325;28;19917;-69
2023/04/25 02:33:01;;;;;;;;;;;;;;;-140.72;100.00;53068.66;5093716;28;19980;-68
2023/04/25 02:35:27;;;;;;;;;;;;;;;-140.72;100.00;53068.66;5091044;28;19932;-69
2023/04/25 02:37:52;;;;;;;;;;;;;;;-140.72;100.00;53117.34;5095065;28;19927;-68
2023/04/25 02:40:40;;;;;;;;;;;;;;;-140.72;100.00;53088.94;5092868;28;19916;-69
2023/04/25 02:43:05;;;;;;;;;;;;;;;-140.72;100.00;53107.19;5091382;28;19920;-69
2023/04/25 02:45:30;;;;;;;;;;;;;;;-140.72;100.00;53056.47;5095769;28;20391;-69
2023/04/25 02:47:56;;;;;;;;;;;;;;;-140.72;100.00;53080.81;5096217;28;19920;-69
2023/04/25 02:50:21;;;;;;;;;;;;;;;-140.72;100.00;53111.25;5095177;28;19920;-69
2023/04/25 02:52:46;;;;;;;;;;;;;;;-140.72;100.00;53086.91;5095573;28;19935;-69
2023/04/25 02:55:12;;;;;;;;;;;;;;;-140.72;100.00;53074.72;5093466;28;19973;-69
2023/04/25 02:57:37;;;;;;;;;;;;;;;-140.72;100.00;53121.41;5095450;28;19966;-69
2023/04/25 03:00:04;;;;;;;;;;;;;;;-140.72;100.00;53072.69;5095959;28;19927;-69
2023/04/25 03:02:30;;;;;;;;;;;;;;;-140.72;100.00;53068.66;5095248;28;19959;-70
2023/04/25 03:04:55;;;;;;;;;;;;;;;-140.72;100.00;53060.53;5095805;28;19962;-70
2023/04/25 03:07:20;;;;;;;;;;;;;;;-140.72;100.00;53056.47;5094837;28;19955;-70
2023/04/25 03:09:45;;;;;;;;;;;;;;;-140.72;100.00;53068.66;5090392;28;20395;-68
2023/04/25 03:12:10;;;;;;;;;;;;;;;-140.72;100.00;53099.09;5092370;28;19965;-70
2023/04/25 03:14:36;;;;;;;;;;;;;;;-140.72;100.00;53060.53;5091696;28;19931;-70
2023/04/25 03:17:01;;;;;;;;;;;;;;;-140.72;100.00;53050.38;5095473;28;19938;-70
2023/04/25 03:19:26;;;;;;;;;;;;;;;-140.72;100.00;53125.47;5093174;28;20567;-70
2023/04/25 03:21:51;;;;;;;;;;;;;;;-140.72;100.00;53062.56;5090296;28;19924;-70
2023/04/25 03:24:17;;;;;;;;;;;;;;;-140.72;100.00;53072.69;5091549;28;20331;-70
2023/04/25 03:26:42;;;;;;;;;;;;;;;-140.72;100.00;53113.28;5093927;28;20347;-70
2023/04/25 03:29:07;;;;;;;;;;;;;;;-140.72;100.00;53139.69;5087502;28;20413;-70
2023/04/25 03:31:32;;;;;;;;;;;;;;;-140.72;100.00;53084.88;5087609;28;20033;-70
2023/04/25 03:33:57;;;;;;;;;;;;;;;-140.72;100.00;53097.06;5090372;28;20315;-70
2023/04/25 03:36:23;;;;;;;;;;;;;;;-140.72;100.00;53060.53;5088005;28;20285;-70
2023/04/25 03:38:48;;;;;;;;;;;;;;;-140.72;100.00;53064.59;5088752;28;20275;-70
2023/04/25 03:41:13;;;;;;;;;;;;;;;-140.72;100.00;53076.75;5085339;28;19977;-70
2023/04/25 03:43:38;;;;;;;;;;;;;;;-140.72;100.00;53080.81;5094532;28;19920;-70
2023/04/25 03:46:04;;;;;;;;;;;;;;;-140.72;100.00;53044.28;5086596;28;19920;-70
2023/04/25 03:48:29;;;;;;;;;;;;;;;-140.72;100.00;53088.94;5093259;28;19943;-70
2023/04/25 03:50:54;;;;;;;;;;;;;;;-140.72;100.00;53113.28;5090633;28;19924;-70
2023/04/25 03:53:20;;;;;;;;;;;;;;;-140.72;100.00;53066.63;5086009;28;19966;-70
2023/04/25 03:55:45;;;;;;;;;;;;;;;-140.72;100.00;53052.41;5096785;28;19956;-70
2023/04/25 03:58:10;;;;;;;;;;;;;;;-140.72;100.00;53058.50;5088884;28;19922;-70
2023/04/25 04:00:36;;;;;;;;;;;;;;;-140.72;100.00;53074.72;5090016;28;20432;-70
2023/04/25 04:03:01;;;;;;;;;;;;;;;-140.72;100.00;53030.09;5085018;28;19920;-70
2023/04/25 04:05:27;;;;;;;;;;;;;;;-140.72;100.00;53070.69;5080617;28;19992;-70
2023/04/25 04:07:52;;;;;;;;;;;;;;;-140.72;100.00;53080.81;5095109;28;19924;-70
2023/04/25 04:10:17;;;;;;;;;;;;;;;-140.72;100.00;53036.16;5094005;28;20415;-70
2023/04/25 04:12:42;;;;;;;;;;;;;;;-140.72;100.00;53062.56;5087186;28;19978;-70
2023/04/25 04:15:08;;;;;;;;;;;;;;;-140.72;100.00;53088.94;5088890;28;19967;-70
2023/04/25 04:17:33;;;;;;;;;;;;;;;-140.72;100.00;53052.41;5092510;28;19928;-71
2023/04/25 04:19:59;;;;;;;;;;;;;;;-140.72;100.00;53064.59;5089966;28;19928;-72
2023/04/25 04:22:24;;;;;;;;;;;;;;;-140.72;100.00;53026.03;5087632;28;20054;-71
2023/04/25 04:24:50;;;;;;;;;;;;;;;-140.72;100.00;53030.09;5090093;28;19928;-71
2023/04/25 04:27:19;;;;;;;;;;;;;;;-140.72;100.00;53068.66;5090061;28;20011;-71
2023/04/25 04:29:45;;;;;;;;;;;;;;;-140.72;100.00;53036.16;5088104;28;20392;-71
2023/04/25 04:32:10;;;;;;;;;;;;;;;-140.72;100.00;53080.81;5085326;28;19965;-69
2023/04/25 04:34:36;;;;;;;;;;;;;;;-140.72;100.00;53068.66;5092345;28;20312;-69
2023/04/25 04:37:01;;;;;;;;;;;;;;;-140.72;100.00;53050.38;5094542;28;19926;-69
2023/04/25 04:39:26;;;;;;;;;;;;;;;-140.72;100.00;53052.41;5096161;28;19975;-69
2023/04/25 04:41:52;;;;;;;;;;;;;;;-140.72;100.00;53090.97;5096944;28;19973;-70
2023/04/25 04:44:17;;;;;;;;;;;;;;;-140.72;100.00;53046.31;5088439;28;19920;-69
2023/04/25 04:46:44;;;;;;;;;;;;;;;-140.72;100.00;53093.00;5088635;28;19962;-69
2023/04/25 04:49:10;;;;;;;;;;;;;;;-140.72;100.00;53050.38;5075362;28;19927;-69
2023/04/25 04:51:36;;;;;;;;;;;;;;;-140.72;100.00;53026.03;5086573;28;20442;-70
2023/04/25 04:54:02;;;;;;;;;;;;;;;-140.72;100.00;53048.34;5091000;28;19931;-72
2023/04/25 04:56:29;;;;;;;;;;;;;;;-140.72;100.00;53080.81;5088976;28;20293;-71
2023/04/25 04:58:54;;;;;;;;;;;;;;;-140.72;100.00;53044.28;5092392;28;19926;-70
2023/04/25 05:01:19;;;;;;;;;;;;;;;-140.72;100.00;53036.16;5088519;28;19920;-71
2023/04/25 05:03:44;;;;;;;;;;;;;;;-140.72;100.00;53072.69;5089456;28;20384;-70
2023/04/25 05:06:10;;;;;;;;;;;;;;;-140.72;100.00;53072.69;5088179;28;19927;-72
2023/04/25 05:08:36;;;;;;;;;;;;;;;-140.72;100.00;53068.66;5087894;28;19920;-72
2023/04/25 05:11:01;;;;;;;;;;;;;;;-140.72;100.00;53050.38;5087546;28;20383;-72
2023/04/25 05:13:26;;;;;;;;;;;;;;;-140.72;100.00;53048.34;5082668;28;19967;-71
2023/04/25 05:15:51;;;;;;;;;;;;;;;-140.72;100.00;53050.38;5087639;28;19954;-72
2023/04/25 05:18:16;;;;;;;;;;;;;;;-140.72;100.00;53030.09;5088444;28;19927;-72
2023/04/25 05:20:42;;;;;;;;;;;;;;;-140.72;100.00;53056.47;5085741;28;19924;-72
2023/04/25 05:23:07;;;;;;;;;;;;;;;-140.72;100.00;53060.53;5086524;28;19977;-72
2023/04/25 05:25:32;;;;;;;;;;;;;;;-140.72;100.00;53028.06;5085841;28;19928;-72
2023/04/25 05:27:58;;;;;;;;;;;;;;;-140.72;100.00;53048.34;5091541;28;20278;-72
2023/04/25 05:30:23;;;;;;;;;;;;;;;-140.72;100.00;53062.56;5084209;28;19920;-72
2023/04/25 05:32:48;;;;;;;;;;;;;;;-140.72;100.00;53040.22;5088575;28;19965;-72
2023/04/25 05:35:13;;;;;;;;;;;;;;;-140.72;100.00;53048.34;5082374;28;20327;-71
2023/04/25 05:37:39;;;;;;;;;;;;;;;-140.72;100.00;53024.00;5084116;28;20314;-71
2023/04/25 05:40:06;;;;;;;;;;;;;;;-140.72;100.00;52999.66;5083466;28;20491;-71
2023/04/25 05:42:31;;;;;;;;;;;;;;;-140.72;100.00;53056.47;5078380;28;19931;-72
2023/04/25 05:44:57;;;;;;;;;;;;;;;-140.72;100.00;53060.53;5093507;28;19920;-73
2023/04/25 05:47:22;;;;;;;;;;;;;;;-140.72;100.00;53001.66;5088925;28;19920;-71
2023/04/25 05:49:47;;;;;;;;;;;;;;;-140.72;100.00;53054.44;5091775;28;20042;-69
2023/04/25 05:52:13;;;;;;;;;;;;;;;-140.72;100.00;53042.25;5093291;28;19931;-71
2023/04/25 05:54:38;;;;;;;;;;;;;;;-140.72;100.00;53009.78;5091744;28;20304;-71
2023/04/25 05:57:03;;;;;;;;;;;;;;;-140.72;100.00;53034.16;5093918;28;20380;-73
2023/04/25 05:59:28;;;;;;;;;;;;;;;-140.72;100.00;53026.03;5095117;28;19946;-71
2023/04/25 06:01:54;;;;;;;;;;;;;;;-140.72;100.00;53052.41;5096474;28;19916;-68
2023/04/25 06:04:20;;;;;;;;;;;;;;;-140.72;100.00;52995.59;5105874;28;19926;-68
2023/04/25 06:06:45;;;;;;;;;;;;;;;-140.72;100.00;53003.69;5099577;28;20292;-68
2023/04/25 06:09:10;;;;;;;;;;;;;;;-140.72;100.00;52987.47;5089014;28;20351;-68
2023/04/25 06:11:35;;;;;;;;;;;;;;;-140.72;100.00;53046.31;5104078;28;19919;-69
2023/04/25 06:14:00;;;;;;;;;;;;;;;-140.72;100.00;52999.66;5091602;28;19989;-69
2023/04/25 06:16:26;;;;;;;;;;;;;;;-140.72;100.00;53015.88;5076232;28;19951;-69
2023/04/25 06:18:51;;;;;;;;;;;;;;;-140.72;100.00;53001.66;5082461;28;19916;-69
2023/04/25 06:21:16;;;;;;;;;;;;;;;-140.72;100.00;52993.56;5093097;28;20003;-68
2023/04/25 06:23:41;;;;;;;;;;;;;;;-140.72;100.00;53054.44;5093775;28;19920;-68
2023/04/25 06:26:07;;;;;;;;;;;;;;;-140.72;100.00;53007.75;5094135;28;19916;-68
2023/04/25 06:28:32;;;;;;;;;;;;;;;-140.72;100.00;53024.00;5084666;28;20025;-68
2023/04/25 06:30:57;;;;;;;;;;;;;;;-140.72;100.00;53052.41;5094067;28;19961;-68
2023/04/25 06:33:24;;;;;;;;;;;;;;;-140.72;100.00;53066.63;5094592;28;19917;-69
2023/04/25 06:35:49;;;;;;;;;;;;;;;-140.72;100.00;53026.03;5095525;28;19923;-69
2023/04/25 06:38:15;;;;;;;;;;;;;;;-140.72;100.00;53048.34;5094060;28;19916;-69
2023/04/25 06:40:40;;;;;;;;;;;;;;;-140.72;100.00;53015.88;5094735;28;19916;-69
2023/04/25 06:43:05;;;;;;;;;;;;;;;-140.72;100.00;53036.16;5093275;28;19916;-69
2023/04/25 06:45:31;;;;;;;;;;;;;;;-140.72;100.00;53017.91;5093269;28;19934;-69
2023/04/25 06:47:56;;;;;;;;;;;;;;;-140.72;100.00;53007.75;5092557;28;20030;-69
2023/04/25 06:50:21;;;;;;;;;;;;;;;-140.72;100.00;53026.03;5095011;28;20011;-69
2023/04/25 06:52:46;;;;;;;;;;;;;;;-140.72;100.00;52995.59;5105603;28;19920;-69
2023/04/25 06:55:12;;;;;;;;;;;;;;;-140.72;100.00;53015.88;5094141;28;20381;-69
2023/04/25 06:57:37;;;;;;;;;;;;;;;-140.72;100.00;52979.34;5090706;28;19923;-69
2023/04/25 07:00:05;;;;;;;;;;;;;;;-140.72;100.00;52999.66;5095170;28;19916;-69
2023/04/25 07:02:30;;;;;;;;;;;;;;;-140.72;100.00;52991.53;5094185;28;20322;-69
2023/04/25 07:04:59;;;;;;;;;;;;;;;-140.72;100.00;52981.38;5094348;28;19916;-69
2023/04/25 07:07:24;;;;;;;;;;;;;;;-140.72;100.00;52959.06;5093320;28;19928;-69
2023/04/25 07:09:49;;;;;;;;;;;;;;;-140.72;100.00;52963.13;5094690;28;19922;-69
2023/04/25 07:12:15;;;;;;;;;;;;;;;-140.72;100.00;52991.53;5093183;28;19938;-69
2023/04/25 07:14:40;;;;;;;;;;;;;;;-140.72;100.00;53005.72;5094390;28;19916;-70
2023/04/25 07:17:06;;;;;;;;;;;;;;;-140.72;100.00;52991.53;5084976;28;19919;-70
2023/04/25 07:19:31;;;;;;;;;;;;;;;-140.72;100.00;53003.69;5084648;28;20348;-70
2023/04/25 07:21:57;;;;;;;;;;;;;;;-140.72;100.00;52991.53;5091524;28;20007;-70
2023/04/25 07:24:22;;;;;;;;;;;;;;;-140.72;100.00;52959.06;5085169;28;19924;-70
2023/04/25 07:26:47;;;;;;;;;;;;;;;-140.72;100.00;53005.72;5094895;28;19916;-70
2023/04/25 07:29:12;;;;;;;;;;;;;;;-140.72;100.00;53028.06;5094711;28;20336;-70
2023/04/25 07:31:38;;;;;;;;;;;;;;;-140.72;100.00;53034.16;5093709;28;20320;-70
2023/04/25 07:34:03;;;;;;;;;;;;;;;-140.72;100.00;52963.13;5088632;28;20347;-70
2023/04/25 07:36:28;;;;;;;;;;;;;;;-140.72;100.00;52989.50;5111363;27;19964;-69
2023/04/25 07:38:54;;;;;;;;;;;;;;;-140.72;100.00;52987.47;5088362;28;19916;-70
2023/04/25 07:41:19;;;;;;;;;;;;;;;-140.72;100.00;52959.06;5091949;28;20308;-70
2023/04/25 07:43:44;;;;;;;;;;;;;;;-140.72;100.00;52981.38;5093456;28;20357;-69
2023/04/25 07:46:10;;;;;;;;;;;;;;;-140.72;100.00;52979.34;5094085;28;19919;-70
2023/04/25 07:48:35;;;;;;;;;;;;;;;-140.72;100.00;52926.59;5093746;28;19920;-70
2023/04/25 07:51:00;;;;;;;;;;;;;;;-140.72;100.00;52936.72;5094318;28;20007;-70
2023/04/25 07:53:25;;;;;;;;;;;;;;;-140.72;100.00;52973.25;5077632;28;19970;-70
2023/04/25 07:55:51;;;;;;;;;;;;;;;-140.72;100.00;52926.59;5090820;28;19928;-70
2023/04/25 07:58:20;;;;;;;;;;;;;;;-140.72;100.00;52938.75;5093934;28;19969;-70
2023/04/25 08:00:46;;;;;;;;;;;;;;;-140.72;100.00;52932.66;5089963;28;19923;-70
2023/04/25 08:03:12;;;;;;;;;;;;;;;-140.72;98.49;52936.72;5093799;28;19924;-70
2023/04/25 08:05:37;;;;;;;;;;;;;;;-140.72;41.55;52940.78;5082160;28;20381;-70
2023/04/25 08:08:02;;;;;;;;;;;;;;;-140.72;34.02;52950.94;5093256;28;19977;-70
2023/04/25 08:10:28;;;;;;;;;;;;;;;-140.72;21.13;52979.34;5094052;28;19916;-70
2023/04/25 08:12:53;;;;;;;;;;;;;;;-140.72;10.63;52926.59;5093994;28;20332;-70
2023/04/25 08:15:18;;;;;;;;;;;;;;;-140.72;0.02;52940.78;5082193;28;19948;-70
2023/04/25 08:17:43;;;;;;;;;;;;;;;-140.72;4.49;52938.75;5095159;28;20399;-70
2023/04/25 08:20:09;;;;;;;;;;;;;;;-140.72;0.00;52946.88;5093633;28;19920;-70
2023/04/25 08:22:35;;;;;;;;;;;;;;;-140.72;0.00;52853.53;5083785;28;19923;-70
2023/04/25 08:25:00;;;;;;;;;;;;;;;-140.72;0.00;52896.16;5092548;28;20252;-70
2023/04/25 08:27:26;;;;;;;;;;;;;;;-140.72;0.00;52894.13;5089794;28;20282;-70
2023/04/25 08:29:51;;;;;;;;;;;;;;;-140.72;0.00;52886.00;5090719;28;19916;-70
2023/04/25 08:32:16;;;;;;;;;;;;;;;-140.72;0.00;52942.81;5088320;28;19916;-70
2023/04/25 08:34:43;;;;;;;;;;;;;;;-140.72;0.00;52918.47;5081034;28;19958;-70
2023/04/25 08:37:09;;;;;;;;;;;;;;;-140.72;0.00;52987.47;5091994;28;19916;-70
2023/04/25 08:39:35;;;;;;;;;;;;;;;-140.72;0.00;52926.59;5092552;28;19924;-70
2023/04/25 08:42:03;;;;;;;;;;;;;;;-140.72;0.00;52938.75;5093234;28;19919;-70
2023/04/25 08:44:29;;;;;;;;;;;;;;;-140.72;0.00;52952.97;5090508;28;19924;-70
2023/04/25 08:46:55;;;;;;;;;;;;;;;-140.72;0.00;52900.19;5085010;28;19920;-70
2023/04/25 08:49:21;;;;;;;;;;;;;;;-140.72;0.00;52863.66;5090258;28;20956;-70
2023/04/25 08:51:47;;;;;;;;;;;;;;;-140.72;0.00;52831.19;5092663;28;19916;-70
2023/04/25 08:54:13;;;;;;;;;;;;;;;-140.72;0.00;52869.75;5091411;28;19919;-70
2023/04/25 08:56:40;;;;;;;;;;;;;;;-140.72;0.00;52886.00;5090662;28;19917;-70
2023/04/25 08:59:07;;;;;;;;;;;;;;;-140.72;0.00;52906.28;5092190;28;19916;-70
2023/04/25 09:01:33;;;;;;;;;;;;;;;-140.72;0.00;52857.59;5093120;28;19962;-70
2023/04/25 09:03:58;;;;;;;;;;;;;;;-140.72;0.00;52800.75;5091231;28;19920;-70
2023/04/25 09:06:24;;;;;;;;;;;;;;;-140.72;0.00;52821.06;5092086;28;20014;-70
2023/04/25 09:08:50;;;;;;;;;;;;;;;-140.72;0.00;52827.16;5087702;28;19927;-70
2023/04/25 09:11:15;;;;;;;;;;;;;;;-140.72;0.00;52721.63;5089409;28;19969;-70
2023/04/25 09:13:42;;;;;;;;;;;;;;;-140.72;0.00;52780.47;5089621;28;21312;-70
2023/04/25 09:16:07;;;;;;;;;;;;;;;-140.72;0.00;52670.88;5082849;28;19916;-70
2023/04/25 09:18:33;;;;;;;;;;;;;;;-140.72;0.00;52636.38;5093322;28;20391;-70
2023/04/25 09:21:08;;;;;;;;;;;;;;;-140.72;0.00;52656.69;5092844;28;19916;-70
2023/04/25 09:23:59;;;;;;;;;;;;;;;-140.72;0.00;52656.69;5091318;28;19923;-70
2023/04/25 09:26:25;;;;;;;;;;;;;;;-140.72;0.00;52610.00;5084600;28;20293;-70
2023/04/25 09:29:04;;;;;;;;;;;;;;;-140.72;0.00;52687.13;5092708;28;19924;-70
2023/04/25 09:31:29;;;;;;;;;;;;;;;-140.72;0.00;52670.88;5083748;28;19916;-70
2023/04/25 09:33:58;;;;;;;;;;;;;;;-140.72;0.00;52668.84;5087684;28;19962;-70
2023/04/25 09:36:26;;;;;;;;;;;;;;;-140.72;0.00;52814.97;5088652;28;20384;-70
2023/04/25 09:38:51;;;;;;;;;;;;;;;-140.72;0.00;52719.59;5092573;28;19924;-70
2023/04/25 09:41:21;;;;;;;;;;;;;;;-140.72;0.00;52640.44;5082742;28;19966;-70
2023/04/25 09:43:48;;;;;;;;;;;;;;;-140.72;0.00;52638.41;5091601;28;19916;-70
2023/04/25 09:46:14;;;;;;;;;;;;;;;-140.72;0.00;52743.94;5090582;28;20288;-70
2023/04/25 09:48:39;;;;;;;;;;;;;;;-140.72;0.00;52776.41;5081455;28;19927;-70
2023/04/25 09:51:08;;;;;;;;;;;;;;;-140.72;0.00;52668.84;5087655;28;19917;-70
2023/04/25 09:53:35;;;;;;;;;;;;;;;-140.72;0.00;52731.75;5086499;28;19969;-69
2023/04/25 09:56:03;;;;;;;;;;;;;;;-140.72;0.00;52638.41;5087867;28;19916;-70
2023/04/25 09:58:29;;;;;;;;;;;;;;;-140.72;0.00;52622.19;5090696;28;19923;-70
2023/04/25 10:00:56;;;;;;;;;;;;;;;-140.72;0.00;52553.19;5091085;28;20332;-68
2023/04/25 10:03:25;;;;;;;;;;;;;;;-140.72;0.00;52565.38;5091806;28;20366;-68
2023/04/25 10:05:52;;;;;;;;;;;;;;;-140.72;0.00;52528.84;5091489;28;20007;-70
2023/04/25 10:08:17;;;;;;;;;;;;;;;-140.72;0.00;52492.31;5092265;28;19920;-68
2023/04/25 10:10:43;;;;;;;;;;;;;;;-140.72;0.00;52622.19;5090263;28;19970;-68
2023/04/25 10:13:08;;;;;;;;;;;;;;;-140.72;0.00;52660.75;5080023;28;20364;-68
2023/04/25 10:15:37;;;;;;;;;;;;;;;-140.72;0.00;52745.97;5081011;28;19974;-69
2023/04/25 10:18:02;;;;;;;;;;;;;;;-140.72;0.00;52817.00;5085033;28;19920;-68
2023/04/25 10:20:28;;;;;;;;;;;;;;;-140.72;0.00;52833.22;5083795;28;19916;-68
2023/04/25 10:22:56;;;;;;;;;;;;;;;-140.72;0.00;52841.34;5099281;28;19916;-68
2023/04/25 10:25:22;;;;;;;;;;;;;;;-140.72;0.00;52849.47;5082995;28;19916;-69
2023/04/25 10:27:49;;;;;;;;;;;;;;;-140.72;0.00;52829.19;5092955;28;20361;-69
2023/04/25 10:30:15;;;;;;;;;;;;;;;-140.72;0.00;52674.94;5084445;28;20338;-69
2023/04/25 10:32:44;;;;;;;;;;;;;;;-140.72;0.00;52569.44;5091970;28;19969;-69
2023/04/25 10:35:11;;;;;;;;;;;;;;;-140.72;0.00;52595.81;5089176;28;19920;-70
2023/04/25 10:37:36;;;;;;;;;;;;;;;-140.72;0.00;52711.47;5080563;28;19931;-70
2023/04/25 10:40:08;;;;;;;;;;;;;;;-140.72;0.00;52778.44;5095560;28;19920;-70
2023/04/25 10:42:33;;;;;;;;;;;;;;;-140.72;0.00;52786.56;5095187;28;19920;-69
2023/04/25 10:45:04;;;;;;;;;;;;;;;-140.72;0.00;52792.66;5096063;28;19916;-69
2023/04/25 10:47:36;;;;;;;;;;;;;;;-140.72;0.00;52719.59;5095753;28;20370;-69
2023/04/25 10:50:06;;;;;;;;;;;;;;;-140.72;0.00;52672.91;5094463;28;19916;-70
2023/04/25 10:52:32;;;;;;;;;;;;;;;-140.72;0.00;52697.28;5094924;28;19916;-70
2023/04/25 10:54:58;;;;;;;;;;;;;;;-140.72;0.00;52620.16;5095363;28;20309;-70
2023/04/25 10:57:30;;;;;;;;;;;;;;;-140.72;0.00;52636.38;5093878;28;19927;-70
2023/04/25 10:59:59;;;;;;;;;;;;;;;-140.72;0.00;52640.44;5097677;28;19923;-70
2023/04/25 11:02:30;;;;;;;;;;;;;;;-140.72;0.00;52660.75;5095659;28;19999;-69
2023/04/25 11:04:56;;;;;;;;;;;;;;;-140.72;0.00;52644.50;5093111;28;19916;-69
2023/04/25 11:07:30;;;;;;;;;;;;;;;-140.72;0.00;52551.16;5084684;28;19962;-69
2023/04/25 11:09:56;;;;;;;;;;;;;;;-140.72;0.00;52504.50;5095768;28;19916;-69
2023/04/25 11:12:21;;;;;;;;;;;;;;;-140.72;0.00;52449.72;5097180;28;19916;-68
2023/04/25 11:14:46;;;;;;;;;;;;;;;-140.72;0.00;52398.97;5089737;28;19916;-69
2023/04/25 11:17:11;;;;;;;;;;;;;;;-140.72;0.00;52449.72;5095567;28;20337;-68
2023/04/25 11:19:36;;;;;;;;;;;;;;;-140.72;0.00;52484.19;5095584;28;20293;-69
2023/04/25 11:22:03;;;;;;;;;;;;;;;-140.72;0.00;52392.88;5094717;28;20263;-70
2023/04/25 11:24:34;;;;;;;;;;;;;;;-140.72;0.00;52366.50;5088555;28;19943;-69
2023/04/25 11:27:02;;;;;;;;;;;;;;;-140.72;0.00;52488.25;5094401;28;20323;-69
2023/04/25 11:29:27;;;;;;;;;;;;;;;-140.72;0.00;52512.59;5088403;28;20357;-70
2023/04/25 11:31:53;;;;;;;;;;;;;;;-140.72;0.00;52470.00;5087505;28;19931;-70
2023/04/25 11:34:18;;;;;;;;;;;;;;;-140.72;0.00;52555.22;5093860;28;19915;-69
2023/04/25 11:36:44;;;;;;;;;;;;;;;-140.72;0.00;52494.34;5094563;28;20470;-70
2023/04/25 11:39:10;;;;;;;;;;;;;;;-140.72;0.00;52451.72;5094967;28;19920;-70
2023/04/25 11:41:36;;;;;;;;;;;;;;;-140.72;0.00;52603.94;5094374;28;19916;-69
2023/04/25 11:44:02;;;;;;;;;;;;;;;-140.72;0.00;52415.22;5093577;28;20015;-69
2023/04/25 11:46:27;;;;;;;;;;;;;;;-140.72;0.00;52437.53;5093492;28;19967;-69
2023/04/25 11:48:55;;;;;;;;;;;;;;;-140.72;0.00;52374.63;5091730;28;19916;-69
2023/04/25 11:51:20;;;;;;;;;;;;;;;-140.72;0.00;52344.19;5094607;28;19916;-69
2023/04/25 11:53:46;;;;;;;;;;;;;;;-140.72;0.00;52275.19;5094154;28;19923;-69
2023/04/25 11:56:11;;;;;;;;;;;;;;;-140.72;0.00;52437.53;5094339;28;19921;-70
2023/04/25 11:58:56;;;;;;;;;;;;;;;-140.72;0.00;52561.31;5090322;28;20041;-69
2023/04/25 12:01:25;;;;;;;;;;;;;;;-140.72;0.00;52638.41;5084408;28;19923;-69
2023/04/25 12:03:50;;;;;;;;;;;;;;;-140.72;0.00;52512.59;5093552;28;19923;-69
2023/04/25 12:06:16;;;;;;;;;;;;;;;-140.72;0.00;52439.56;5094108;28;19916;-69
2023/04/25 12:08:58;;;;;;;;;;;;;;;-140.72;0.00;52330.00;5093079;28;20007;-69
2023/04/25 12:11:23;;;;;;;;;;;;;;;-140.72;0.00;52307.66;5092802;28;19927;-69
2023/04/25 12:13:52;;;;;;;;;;;;;;;-140.72;0.00;52277.22;5093007;28;19920;-70
2023/04/25 12:16:17;;;;;;;;;;;;;;;-140.72;0.00;52271.16;5096409;28;20007;-69
2023/04/25 12:18:42;;;;;;;;;;;;;;;-140.72;0.00;52303.59;5092984;28;20061;-69
2023/04/25 12:21:09;;;;;;;;;;;;;;;-140.72;0.00;52327.97;5073723;28;19970;-70